createdAt,value
2023-03-21T00:04:50.419Z,10.82
2023-03-21T00:09:57.004Z,10.17
2023-03-21T00:15:10.487Z,11.52
2023-03-21T00:20:16.458Z,12.11
2023-03-21T00:25:19.372Z,12.39
2023-03-21T00:30:22.206Z,12.67
2023-03-21T00:35:54.101Z,12.59
2023-03-21T00:40:49.395Z,10.83
2023-03-21T00:45:52.492Z,10.92
2023-03-21T00:50:57.435Z,11.84
2023-03-21T00:56:00.349Z,12.34
2023-03-21T01:01:04.633Z,12.57
2023-03-21T01:06:13.531Z,12.66
2023-03-21T01:11:20.111Z,12.76
2023-03-21T01:16:23.410Z,11.47
2023-03-21T01:21:26.907Z,10.43
2023-03-21T01:26:30.072Z,11.52
2023-03-21T01:31:33.882Z,12.06
2023-03-21T01:36:37.143Z,12.33
2023-03-21T01:41:44.077Z,12.49
2023-03-21T01:47:03.629Z,12.53
2023-03-21T01:52:29.771Z,12.57
2023-03-21T01:57:52.140Z,12.20
2023-03-21T02:03:20.996Z,10.15
2023-03-21T02:08:39.094Z,10.48
2023-03-21T02:13:42.890Z,11.56
2023-03-21T02:18:54.802Z,12.02
2023-03-21T02:24:26.790Z,12.22
2023-03-21T02:29:52.612Z,12.44
2023-03-21T02:35:00.696Z,12.53
2023-03-21T02:40:11.764Z,12.49
2023-03-21T02:45:22.057Z,12.43
2023-03-21T02:50:48.593Z,12.51
2023-03-21T02:55:54.235Z,12.54
2023-03-21T03:00:57.291Z,12.57
2023-03-21T03:06:02.524Z,12.60
2023-03-21T03:11:33.385Z,12.54
2023-03-21T03:16:47.607Z,12.48
2023-03-21T03:22:00.139Z,12.38
2023-03-21T03:27:11.040Z,12.48
2023-03-21T03:32:24.532Z,12.48
2023-03-21T03:37:30.007Z,12.58
2023-03-21T03:42:40.282Z,12.60
2023-03-21T03:47:56.015Z,12.62
2023-03-21T03:53:18.126Z,12.63
2023-03-21T03:58:27.438Z,12.69
2023-03-21T04:03:48.822Z,12.69
2023-03-21T04:08:52.652Z,12.70
2023-03-21T04:13:55.656Z,12.74
2023-03-21T04:18:58.537Z,12.64
2023-03-21T04:24:01.472Z,12.78
2023-03-21T04:29:04.781Z,12.76
2023-03-21T04:34:10.206Z,12.75
2023-03-21T04:39:14.138Z,12.62
2023-03-21T04:44:18.277Z,12.71
2023-03-21T04:49:21.513Z,12.79
2023-03-21T04:54:24.518Z,12.71
2023-03-21T04:59:27.487Z,12.72
2023-03-21T05:04:31.265Z,12.73
2023-03-21T05:09:34.149Z,12.58
2023-03-21T05:14:37.077Z,12.58
2023-03-21T05:19:40.867Z,12.51
2023-03-21T05:24:43.781Z,12.52
2023-03-21T05:29:46.686Z,12.69
2023-03-21T05:34:49.695Z,12.81
2023-03-21T05:39:52.849Z,12.83
2023-03-21T05:44:55.914Z,12.74
2023-03-21T05:49:58.928Z,12.64
2023-03-21T05:55:01.847Z,12.76
2023-03-21T06:00:07.459Z,12.85
2023-03-21T06:05:10.729Z,12.91
2023-03-21T06:10:14.225Z,13.28
2023-03-21T06:15:17.377Z,12.98
2023-03-21T06:20:20.338Z,11.05
2023-03-21T06:25:23.561Z,10.98
2023-03-21T06:30:26.459Z,12.39
2023-03-21T06:35:29.462Z,13.14
2023-03-21T06:40:32.366Z,13.53
2023-03-21T06:45:35.667Z,13.38
2023-03-21T06:50:38.683Z,11.49
2023-03-21T06:55:41.790Z,11.02
2023-03-21T07:00:44.990Z,12.46
2023-03-21T07:05:47.846Z,13.27
2023-03-21T07:10:51.018Z,13.71
2023-03-21T07:15:55.177Z,13.59
2023-03-21T07:20:58.781Z,11.80
2023-03-21T07:26:01.890Z,10.59
2023-03-21T07:31:07.243Z,11.62
2023-03-21T07:36:12.980Z,12.89
2023-03-21T07:46:19.882Z,12.56
2023-03-21T07:51:22.956Z,11.58
2023-03-21T07:56:26.790Z,12.97
2023-03-21T08:01:29.887Z,14.32
2023-03-21T08:06:32.833Z,16.14
2023-03-21T08:11:35.800Z,17.95
2023-03-21T08:16:39.345Z,18.91
2023-03-21T08:21:42.734Z,18.36
2023-03-21T08:26:46.419Z,18.24
2023-03-21T08:31:49.364Z,20.06
2023-03-21T08:36:52.601Z,19.65
2023-03-21T08:41:55.482Z,18.56
2023-03-21T08:46:58.396Z,18.65
2023-03-21T08:52:01.386Z,18.57
2023-03-21T08:57:04.526Z,18.02
2023-03-21T09:02:07.746Z,16.66
2023-03-21T09:07:15.401Z,15.43
2023-03-21T09:12:18.229Z,14.60
2023-03-21T09:17:21.402Z,14.58
2023-03-21T09:22:25.673Z,15.36
2023-03-21T09:27:28.783Z,15.31
2023-03-21T09:32:31.910Z,14.88
2023-03-21T09:37:38.494Z,14.52
2023-03-21T09:42:52.547Z,14.36
2023-03-21T09:47:57.258Z,14.24
2023-03-21T09:53:14.071Z,14.27
2023-03-21T09:58:31.268Z,14.26
2023-03-21T10:03:35.433Z,14.05
2023-03-21T10:08:41.914Z,13.75
2023-03-21T10:13:51.803Z,13.56
2023-03-21T10:18:56.193Z,13.38
2023-03-21T10:24:00.604Z,13.08
2023-03-21T10:29:04.105Z,12.89
2023-03-21T10:34:18.676Z,12.67
2023-03-21T10:39:32.399Z,12.45
2023-03-21T10:44:36.327Z,12.22
2023-03-21T10:50:05.748Z,12.06
2023-03-21T10:55:29.037Z,11.89
2023-03-21T11:00:37.295Z,11.99
2023-03-21T11:05:41.989Z,12.15
2023-03-21T11:11:03.327Z,12.11
2023-03-21T11:16:10.197Z,12.24
2023-03-21T11:21:15.200Z,12.60
2023-03-21T11:26:36.331Z,12.78
2023-03-21T11:31:41.238Z,12.82
2023-03-21T11:36:50.521Z,12.94
2023-03-21T11:41:53.621Z,12.78
2023-03-21T11:46:56.896Z,12.45
2023-03-21T11:52:30.574Z,12.37
2023-03-21T11:57:37.978Z,12.64
2023-03-21T12:03:11.545Z,12.81
2023-03-21T12:08:23.414Z,12.80
2023-03-21T12:13:31.958Z,12.53
2023-03-21T12:18:53.392Z,12.22
2023-03-21T12:24:18.903Z,11.93
2023-03-21T12:29:31.559Z,11.66
2023-03-21T12:34:56.378Z,11.48
2023-03-21T12:40:21.730Z,11.43
2023-03-21T12:45:40.652Z,11.45
2023-03-21T12:50:53.924Z,11.29
2023-03-21T12:56:01.933Z,11.24
2023-03-21T13:01:06.956Z,11.39
2023-03-21T13:06:13.803Z,11.61
2023-03-21T13:11:21.411Z,12.07
2023-03-21T13:16:24.375Z,12.55
2023-03-21T13:21:52.535Z,12.99
2023-03-21T13:27:27.776Z,13.38
2023-03-21T13:32:37.666Z,13.82
2023-03-21T13:37:43.723Z,13.96
2023-03-21T13:42:53.538Z,14.21
2023-03-21T13:48:04.635Z,14.16
2023-03-21T13:53:12.416Z,13.99
2023-03-21T13:58:37.153Z,14.50
2023-03-21T14:03:41.121Z,17.34
2023-03-21T14:08:46.874Z,21.15
2023-03-21T14:13:51.819Z,23.89
2023-03-21T14:19:06.154Z,25.63
2023-03-21T14:24:13.872Z,25.40
2023-03-21T14:29:35.675Z,24.04
2023-03-21T14:34:39.488Z,23.86
2023-03-21T14:39:42.694Z,24.23
2023-03-21T14:44:57.052Z,25.37
2023-03-21T14:50:01.601Z,26.21
2023-03-21T14:55:15.716Z,26.73
2023-03-21T15:00:26.465Z,27.18
2023-03-21T15:05:37.901Z,27.44
2023-03-21T15:10:42.623Z,27.28
2023-03-21T15:15:46.636Z,27.03
2023-03-21T15:20:51.456Z,26.62
2023-03-21T15:25:54.721Z,26.16
2023-03-21T15:30:57.989Z,25.58
2023-03-21T15:36:01.617Z,24.67
2023-03-21T15:41:16.681Z,23.51
2023-03-21T15:46:33.222Z,22.70
2023-03-21T15:51:36.803Z,22.52
2023-03-21T15:56:46.281Z,21.89
2023-03-21T16:01:51.148Z,20.81
2023-03-21T16:06:58.758Z,19.85
2023-03-21T16:12:02.073Z,18.69
2023-03-21T16:17:28.910Z,17.21
2023-03-21T16:22:35.021Z,16.07
2023-03-21T16:27:37.924Z,15.18
2023-03-21T16:32:41.221Z,13.95
2023-03-21T16:37:44.230Z,12.36
2023-03-21T16:42:47.750Z,11.00
2023-03-21T16:47:52.240Z,10.01
2023-03-21T16:52:56.942Z,9.29
2023-03-21T16:58:00.563Z,8.71
2023-03-21T17:03:13.411Z,8.26
2023-03-21T17:08:19.055Z,7.86
2023-03-21T17:13:21.925Z,7.53
2023-03-21T17:18:24.769Z,7.25
2023-03-21T17:23:27.776Z,7.02
2023-03-21T17:28:30.780Z,6.81
2023-03-21T17:33:33.582Z,6.64
2023-03-21T17:38:38.231Z,6.46
2023-03-21T17:43:41.752Z,6.29
2023-03-21T17:48:46.259Z,6.12
2023-03-21T17:53:53.802Z,5.97
2023-03-21T17:58:59.784Z,5.83
2023-03-21T18:04:05.279Z,5.69
2023-03-21T18:09:11.928Z,6.45
2023-03-21T18:14:18.294Z,8.77
2023-03-21T18:19:22.256Z,10.02
2023-03-21T18:24:25.870Z,8.98
2023-03-21T18:34:54.229Z,6.65
2023-03-21T18:39:58.863Z,6.07
2023-03-21T18:45:02.923Z,7.05
2023-03-21T18:50:16.257Z,8.97
2023-03-21T18:55:19.861Z,8.92
2023-03-21T19:00:23.749Z,7.37
2023-03-21T19:05:27.566Z,7.39
2023-03-21T19:10:30.516Z,9.08
2023-03-21T19:15:34.819Z,9.71
2023-03-21T19:20:42.365Z,8.07
2023-03-21T19:25:45.271Z,6.70
2023-03-21T19:30:50.675Z,6.55
2023-03-21T19:36:10.892Z,8.44
2023-03-21T19:41:16.604Z,9.59
2023-03-21T19:46:21.200Z,8.34
2023-03-21T19:51:29.877Z,6.81
2023-03-21T19:56:34.772Z,6.74
2023-03-21T20:01:38.838Z,8.65
2023-03-21T20:06:41.773Z,8.85
2023-03-21T20:11:44.679Z,7.20
2023-03-21T20:16:47.622Z,6.83
2023-03-21T20:21:57.954Z,8.47
2023-03-21T20:27:04.532Z,8.46
2023-03-21T20:32:07.855Z,6.88
2023-03-21T20:37:11.606Z,7.58
2023-03-21T20:42:14.593Z,8.99
2023-03-21T20:47:17.605Z,8.54
2023-03-21T20:57:44.320Z,6.02
2023-03-21T21:02:49.718Z,7.63
2023-03-21T21:07:53.085Z,8.98
2023-03-21T21:12:56.504Z,9.57
2023-03-21T21:18:08.125Z,9.36
2023-03-21T21:23:13.512Z,7.41
2023-03-21T21:28:17.919Z,6.13
2023-03-21T21:33:23.989Z,6.05
2023-03-21T21:38:27.099Z,7.93
2023-03-21T21:43:31.025Z,9.11
2023-03-21T21:48:34.543Z,9.70
2023-03-21T21:53:39.084Z,8.70
2023-03-21T21:58:47.728Z,6.87
2023-03-21T22:03:52.096Z,5.70
2023-03-21T22:08:57.456Z,5.06
2023-03-21T22:14:01.102Z,6.60
2023-03-21T22:19:04.207Z,8.17
2023-03-21T22:24:07.629Z,9.13
2023-03-21T22:29:11.012Z,9.81
2023-03-21T22:34:13.997Z,8.62
2023-03-21T22:39:18.737Z,6.85
2023-03-21T22:44:21.867Z,5.69
2023-03-21T22:49:24.752Z,5.96
2023-03-21T22:54:27.763Z,7.87
2023-03-21T22:59:31.306Z,8.90
2023-03-21T23:04:34.706Z,9.41
2023-03-21T23:09:37.595Z,9.58
2023-03-21T23:14:40.508Z,7.75
2023-03-21T23:19:43.512Z,6.17
2023-03-21T23:24:47.232Z,5.88
2023-03-21T23:29:50.344Z,7.67
2023-03-21T23:34:55.705Z,8.83
2023-03-21T23:39:58.610Z,9.58
2023-03-21T23:45:01.508Z,9.22
2023-03-21T23:50:07.894Z,7.13
2023-03-21T23:55:11.108Z,5.81
